Terminal Aerodrome Forecast
Issued by NWS

Home | Current Version | Previous Version | Graphics & Text | Print | Product List | Glossary On
Versions: 1 2 3 4 5 6 7 8 9 10 11 12 13 14 15 16 17 18 19 20 21
000
FTUS43 KICT 180520
TAFSLN
TAF
KSLN 180520Z 1806/1906 19005KT P6SM SCT200
     FM181600 18009KT P6SM BKN100
     FM182000 19013KT P6SM BKN100
     FM190400 17007KT P6SM OVC015
      AMD NOT SKED=

USA.gov is the U.S. government's official web portal to all federal, state and local government web resources and services.